CYIN

Bleibler Ranch

Bleibler Ranch, British Columbia, Canada
METAR CYIN 212208Z AUTO 26018G26KT 9SM BKN060 BKN073 OVC092 07/M08 A3009 RMK SLP211
Observed Flight Rules
Apr-21 @ 22:08 UTC (58 minutes ago) Visual Flight Rules
Wind Visibility Clouds
260° at 18 knots
 Gusting to 26 knots
9 miles
  • Broken at 6,000' AGL
  • Broken at 7,300' AGL
  • Overcast at 9,200' AGL
Temperatures Readings
Current 7°C / 45°F
Dewpoint -8°C / 18°F
Humidity 34%
Altimeter 30.09" Hg
Pressure 1021.1 hPa
Elevation 1128
METAR CYIN 212208Z AUTO 26018G26KT 9SM BKN060 BKN073 OVC092 07/M08 A3009 RMK SLP211
Observed Flight Rules
Apr-21 @ 22:08 UTC
(58 minutes ago)
VFR
Wind Visibility
260° at 18 knots
 Gusting to 26 knots
9 miles
Clouds
  • Broken at 6,000' AGL
  • Broken at 7,300' AGL
  • Overcast at 9,200' AGL
Temperature Dewpoint
7°C / 45°F -8°C / 18°F
Humidity Altimeter Pressure
34% 30.09" Hg 1021.1 hPa